Terminal Aerodrome Forecast
Issued by NWS

Home | Current Version | Previous Version | Text Only | Print | Product List | Glossary On
Versions: 1 2 3 4 5 6 7 8 9 10 11 12 13
000
FTUS43 KDLH 280500
TAFBRD
TAF
KBRD 280520Z 2806/0106 21006KT P6SM SKC
     FM281100 17004KT P6SM BKN250
     FM281800 19011G17KT P6SM SCT050 BKN250
     FM282300 19007KT P6SM VCSH SCT025 OVC050
     FM010200 20009KT P6SM -SN BKN025 OVC035=

USA.gov is the U.S. government's official web portal to all federal, state and local government web resources and services.